sensor_id;sensor_type;location;lat;lon;timestamp;pressure;altitude;pressure_sealevel;temperature;humidity
31121;BME280;17770;45.966;13.632;2023-08-06T00:01:35;99475.88;;;24.93;53.68
31121;BME280;17770;45.966;13.632;2023-08-06T00:04:01;99479.41;;;25.10;53.31
31121;BME280;17770;45.966;13.632;2023-08-06T00:06:27;99477.50;;;25.28;52.48
31121;BME280;17770;45.966;13.632;2023-08-06T00:08:52;99483.13;;;24.99;53.16
31121;BME280;17770;45.966;13.632;2023-08-06T00:11:18;99490.69;;;24.94;53.96
31121;BME280;17770;45.966;13.632;2023-08-06T00:13:44;99484.75;;;25.26;52.97
31121;BME280;17770;45.966;13.632;2023-08-06T00:16:13;99477.34;;;25.29;52.75
31121;BME280;17770;45.966;13.632;2023-08-06T00:18:39;99476.31;;;25.22;52.64
31121;BME280;17770;45.966;13.632;2023-08-06T00:21:06;99473.22;;;25.27;52.41
31121;BME280;17770;45.966;13.632;2023-08-06T00:23:31;99471.03;;;25.22;52.83
31121;BME280;17770;45.966;13.632;2023-08-06T00:25:57;99468.91;;;25.26;52.28
31121;BME280;17770;45.966;13.632;2023-08-06T00:28:23;99454.22;;;25.23;52.31
31121;BME280;17770;45.966;13.632;2023-08-06T00:30:53;99461.31;;;25.23;52.67
31121;BME280;17770;45.966;13.632;2023-08-06T00:33:19;99455.88;;;25.24;52.74
31121;BME280;17770;45.966;13.632;2023-08-06T00:35:46;99451.22;;;25.18;52.91
31121;BME280;17770;45.966;13.632;2023-08-06T00:38:12;99446.63;;;25.20;52.46
31121;BME280;17770;45.966;13.632;2023-08-06T00:40:38;99451.75;;;25.22;52.44
31121;BME280;17770;45.966;13.632;2023-08-06T00:43:04;99445.94;;;25.18;52.76
31121;BME280;17770;45.966;13.632;2023-08-06T00:45:30;99450.06;;;25.21;52.25
31121;BME280;17770;45.966;13.632;2023-08-06T00:47:59;99449.28;;;25.20;52.38
31121;BME280;17770;45.966;13.632;2023-08-06T00:50:26;99439.84;;;25.18;52.59
31121;BME280;17770;45.966;13.632;2023-08-06T00:52:52;99435.41;;;25.18;52.53
31121;BME280;17770;45.966;13.632;2023-08-06T00:55:18;99433.09;;;25.15;52.70
31121;BME280;17770;45.966;13.632;2023-08-06T00:57:43;99422.69;;;25.14;52.28
31121;BME280;17770;45.966;13.632;2023-08-06T01:00:10;99426.97;;;25.15;52.33
31121;BME280;17770;45.966;13.632;2023-08-06T01:02:36;99424.31;;;25.15;52.12
31121;BME280;17770;45.966;13.632;2023-08-06T01:05:02;99413.94;;;25.13;52.24
31121;BME280;17770;45.966;13.632;2023-08-06T01:07:33;99412.81;;;24.74;53.21
31121;BME280;17770;45.966;13.632;2023-08-06T01:10:10;99410.38;;;24.63;53.88
31121;BME280;17770;45.966;13.632;2023-08-06T01:15:28;99412.50;;;24.60;54.12
31121;BME280;17770;45.966;13.632;2023-08-06T01:17:54;99406.44;;;24.59;54.21
31121;BME280;17770;45.966;13.632;2023-08-06T01:20:20;99399.50;;;24.58;53.91
31121;BME280;17770;45.966;13.632;2023-08-06T01:22:46;99403.97;;;24.58;54.16
31121;BME280;17770;45.966;13.632;2023-08-06T01:25:13;99401.44;;;24.56;53.99
31121;BME280;17770;45.966;13.632;2023-08-06T01:30:25;99418.09;;;24.57;54.23
31121;BME280;17770;45.966;13.632;2023-08-06T01:33:03;99406.25;;;24.53;54.03
31121;BME280;17770;45.966;13.632;2023-08-06T01:35:29;99401.44;;;24.82;53.30
31121;BME280;17770;45.966;13.632;2023-08-06T01:37:59;99405.81;;;24.99;52.50
31121;BME280;17770;45.966;13.632;2023-08-06T01:40:25;99409.59;;;25.04;52.58
31121;BME280;17770;45.966;13.632;2023-08-06T01:42:52;99406.16;;;25.04;52.44
31121;BME280;17770;45.966;13.632;2023-08-06T01:45:18;99408.81;;;25.04;52.64
31121;BME280;17770;45.966;13.632;2023-08-06T01:47:44;99403.19;;;24.99;52.74
31121;BME280;17770;45.966;13.632;2023-08-06T01:50:10;99398.53;;;25.01;52.55
31121;BME280;17770;45.966;13.632;2023-08-06T01:52:36;99396.63;;;24.69;53.28
31121;BME280;17770;45.966;13.632;2023-08-06T01:55:02;99402.28;;;24.57;53.80
31121;BME280;17770;45.966;13.632;2023-08-06T01:57:28;99395.53;;;24.54;53.91
31121;BME280;17770;45.966;13.632;2023-08-06T01:59:54;99399.59;;;24.48;54.06
31121;BME280;17770;45.966;13.632;2023-08-06T02:02:19;99394.34;;;24.48;54.01
31121;BME280;17770;45.966;13.632;2023-08-06T02:04:46;99387.97;;;24.59;54.00
31121;BME280;17770;45.966;13.632;2023-08-06T02:07:12;99389.78;;;24.92;52.93
31121;BME280;17770;45.966;13.632;2023-08-06T02:09:38;99394.25;;;25.00;52.93
31121;BME280;17770;45.966;13.632;2023-08-06T02:12:04;99389.50;;;25.03;52.53
31121;BME280;17770;45.966;13.632;2023-08-06T02:14:30;99397.25;;;25.05;52.53
31121;BME280;17770;45.966;13.632;2023-08-06T02:16:56;99392.81;;;25.05;52.25
31121;BME280;17770;45.966;13.632;2023-08-06T02:19:24;99399.03;;;25.04;52.47
31121;BME280;17770;45.966;13.632;2023-08-06T02:21:50;99396.41;;;25.04;52.32
31121;BME280;17770;45.966;13.632;2023-08-06T02:24:16;99404.31;;;25.04;52.90
31121;BME280;17770;45.966;13.632;2023-08-06T02:26:42;99402.53;;;25.05;52.99
31121;BME280;17770;45.966;13.632;2023-08-06T02:29:08;99394.78;;;25.03;53.17
31121;BME280;17770;45.966;13.632;2023-08-06T02:31:34;99393.78;;;25.04;52.97
31121;BME280;17770;45.966;13.632;2023-08-06T02:34:00;99397.25;;;25.05;52.92
31121;BME280;17770;45.966;13.632;2023-08-06T02:36:26;99395.59;;;25.04;52.44
31121;BME280;17770;45.966;13.632;2023-08-06T02:38:55;99391.97;;;25.05;52.39
31121;BME280;17770;45.966;13.632;2023-08-06T02:41:22;99397.91;;;24.99;52.85
31121;BME280;17770;45.966;13.632;2023-08-06T02:43:47;99401.81;;;24.61;53.72
31121;BME280;17770;45.966;13.632;2023-08-06T02:46:13;99399.97;;;24.54;54.17
31121;BME280;17770;45.966;13.632;2023-08-06T02:48:39;99405.72;;;24.49;54.39
31121;BME280;17770;45.966;13.632;2023-08-06T02:51:05;99400.59;;;24.48;54.22
31121;BME280;17770;45.966;13.632;2023-08-06T02:53:32;99392.97;;;24.44;54.14
31121;BME280;17770;45.966;13.632;2023-08-06T02:56:02;99394.34;;;24.74;53.96
31121;BME280;17770;45.966;13.632;2023-08-06T02:58:37;99394.06;;;24.93;53.54
31121;BME280;17770;45.966;13.632;2023-08-06T03:01:11;99393.59;;;24.98;52.74
31121;BME280;17770;45.966;13.632;2023-08-06T03:03:46;99395.09;;;25.00;53.10
31121;BME280;17770;45.966;13.632;2023-08-06T03:06:19;99399.53;;;25.00;52.59
31121;BME280;17770;45.966;13.632;2023-08-06T03:08:48;99410.94;;;25.00;52.58
31121;BME280;17770;45.966;13.632;2023-08-06T03:11:14;99402.84;;;25.02;52.68
31121;BME280;17770;45.966;13.632;2023-08-06T03:13:41;99408.28;;;25.00;52.84
31121;BME280;17770;45.966;13.632;2023-08-06T03:16:07;99409.25;;;24.99;52.58
31121;BME280;17770;45.966;13.632;2023-08-06T03:18:33;99405.13;;;24.97;52.40
31121;BME280;17770;45.966;13.632;2023-08-06T03:21:02;99411.09;;;24.99;52.26
31121;BME280;17770;45.966;13.632;2023-08-06T03:23:30;99401.34;;;24.99;53.11
31121;BME280;17770;45.966;13.632;2023-08-06T03:25:56;99398.50;;;24.93;53.76
31121;BME280;17770;45.966;13.632;2023-08-06T03:28:26;99408.69;;;24.80;53.36
31121;BME280;17770;45.966;13.632;2023-08-06T03:31:00;99402.28;;;24.82;52.76
31121;BME280;17770;45.966;13.632;2023-08-06T03:33:29;99400.66;;;24.56;54.14
31121;BME280;17770;45.966;13.632;2023-08-06T03:35:57;99393.81;;;24.45;54.08
31121;BME280;17770;45.966;13.632;2023-08-06T03:38:24;99395.25;;;24.39;54.71
31121;BME280;17770;45.966;13.632;2023-08-06T03:40:50;99400.53;;;24.39;54.27
31121;BME280;17770;45.966;13.632;2023-08-06T03:43:15;99391.81;;;24.39;54.44
31121;BME280;17770;45.966;13.632;2023-08-06T03:45:41;99384.88;;;24.38;54.23
31121;BME280;17770;45.966;13.632;2023-08-06T03:48:08;99380.59;;;24.37;54.40
31121;BME280;17770;45.966;13.632;2023-08-06T03:50:34;99383.91;;;24.39;54.62
31121;BME280;17770;45.966;13.632;2023-08-06T03:53:00;99379.75;;;24.36;54.44
31121;BME280;17770;45.966;13.632;2023-08-06T03:55:27;99372.84;;;24.35;54.53
31121;BME280;17770;45.966;13.632;2023-08-06T03:57:53;99381.59;;;24.36;54.70
31121;BME280;17770;45.966;13.632;2023-08-06T04:00:20;99380.09;;;24.33;54.40
31121;BME280;17770;45.966;13.632;2023-08-06T04:02:51;99379.13;;;24.34;54.45
31121;BME280;17770;45.966;13.632;2023-08-06T04:05:17;99374.81;;;24.33;54.28
31121;BME280;17770;45.966;13.632;2023-08-06T04:07:43;99365.25;;;24.32;54.59
31121;BME280;17770;45.966;13.632;2023-08-06T04:10:09;99366.91;;;24.33;54.50
31121;BME280;17770;45.966;13.632;2023-08-06T04:12:35;99363.44;;;24.33;54.39
31121;BME280;17770;45.966;13.632;2023-08-06T04:15:03;99365.25;;;24.32;54.68
31121;BME280;17770;45.966;13.632;2023-08-06T04:17:29;99364.25;;;24.33;55.21
31121;BME280;17770;45.966;13.632;2023-08-06T04:19:55;99364.59;;;24.30;55.00
31121;BME280;17770;45.966;13.632;2023-08-06T04:22:24;99369.69;;;24.32;54.38
31121;BME280;17770;45.966;13.632;2023-08-06T04:24:50;99374.13;;;24.31;54.38
31121;BME280;17770;45.966;13.632;2023-08-06T04:27:16;99374.13;;;24.31;54.79
31121;BME280;17770;45.966;13.632;2023-08-06T04:29:43;99382.03;;;24.31;54.53
31121;BME280;17770;45.966;13.632;2023-08-06T04:32:09;99384.84;;;24.30;54.53
31121;BME280;17770;45.966;13.632;2023-08-06T04:34:39;99387.63;;;24.28;54.32
31121;BME280;17770;45.966;13.632;2023-08-06T04:37:05;99388.47;;;24.29;54.27
31121;BME280;17770;45.966;13.632;2023-08-06T04:39:31;99392.91;;;24.28;54.51
31121;BME280;17770;45.966;13.632;2023-08-06T04:41:57;99395.69;;;24.27;54.58
31121;BME280;17770;45.966;13.632;2023-08-06T04:44:26;99403.44;;;24.28;54.44
31121;BME280;17770;45.966;13.632;2023-08-06T04:46:52;99417.47;;;24.29;55.41
31121;BME280;17770;45.966;13.632;2023-08-06T04:49:21;99424.53;;;24.28;55.35
31121;BME280;17770;45.966;13.632;2023-08-06T04:51:47;99439.50;;;24.28;54.61
31121;BME280;17770;45.966;13.632;2023-08-06T04:54:13;99431.59;;;24.28;54.64
31121;BME280;17770;45.966;13.632;2023-08-06T04:56:39;99433.59;;;24.26;54.41
31121;BME280;17770;45.966;13.632;2023-08-06T04:59:05;99425.53;;;24.27;54.52
31121;BME280;17770;45.966;13.632;2023-08-06T05:01:31;99420.41;;;24.26;54.41
31121;BME280;17770;45.966;13.632;2023-08-06T05:03:57;99414.31;;;24.25;54.55
31121;BME280;17770;45.966;13.632;2023-08-06T05:06:23;99423.19;;;24.24;54.77
31121;BME280;17770;45.966;13.632;2023-08-06T05:08:49;99425.31;;;24.21;54.78
31121;BME280;17770;45.966;13.632;2023-08-06T05:11:15;99419.22;;;24.46;53.90
31121;BME280;17770;45.966;13.632;2023-08-06T05:13:40;99425.38;;;24.63;53.63
31121;BME280;17770;45.966;13.632;2023-08-06T05:16:06;99415.22;;;24.68;53.21
31121;BME280;17770;45.966;13.632;2023-08-06T05:18:32;99405.78;;;24.65;53.21
31121;BME280;17770;45.966;13.632;2023-08-06T05:21:00;99392.66;;;24.73;54.00
31121;BME280;17770;45.966;13.632;2023-08-06T05:23:25;99394.78;;;24.70;53.93
31121;BME280;17770;45.966;13.632;2023-08-06T05:25:51;99397.94;;;24.73;54.07
31121;BME280;17770;45.966;13.632;2023-08-06T05:28:17;99397.78;;;24.75;54.18
31121;BME280;17770;45.966;13.632;2023-08-06T05:30:43;99394.34;;;24.74;53.86
31121;BME280;17770;45.966;13.632;2023-08-06T05:33:09;99393.41;;;24.58;54.79
31121;BME280;17770;45.966;13.632;2023-08-06T05:35:35;99394.34;;;24.74;53.60
31121;BME280;17770;45.966;13.632;2023-08-06T05:38:01;99394.19;;;24.76;53.64
31121;BME280;17770;45.966;13.632;2023-08-06T05:40:26;99396.50;;;24.79;53.98
31121;BME280;17770;45.966;13.632;2023-08-06T05:42:53;99393.19;;;24.77;53.31
31121;BME280;17770;45.966;13.632;2023-08-06T05:45:19;99393.84;;;24.79;54.31
31121;BME280;17770;45.966;13.632;2023-08-06T05:47:45;99393.84;;;24.79;54.29
31121;BME280;17770;45.966;13.632;2023-08-06T05:50:13;99393.69;;;24.80;53.92
31121;BME280;17770;45.966;13.632;2023-08-06T05:52:39;99390.91;;;24.82;54.16
31121;BME280;17770;45.966;13.632;2023-08-06T05:55:05;99393.53;;;24.82;54.43
31121;BME280;17770;45.966;13.632;2023-08-06T05:57:31;99398.81;;;24.82;54.13
31121;BME280;17770;45.966;13.632;2023-08-06T05:59:56;99398.81;;;24.82;54.44
31121;BME280;17770;45.966;13.632;2023-08-06T06:02:22;99401.28;;;24.83;54.49
31121;BME280;17770;45.966;13.632;2023-08-06T06:04:48;99403.94;;;24.83;53.96
31121;BME280;17770;45.966;13.632;2023-08-06T06:07:14;99406.56;;;24.83;54.45
31121;BME280;17770;45.966;13.632;2023-08-06T06:09:40;99412.00;;;24.82;54.10
31121;BME280;17770;45.966;13.632;2023-08-06T06:12:06;99410.19;;;24.82;54.57
31121;BME280;17770;45.966;13.632;2023-08-06T06:14:32;99412.84;;;24.82;54.39
31121;BME280;17770;45.966;13.632;2023-08-06T06:16:58;99410.19;;;24.57;55.32
31121;BME280;17770;45.966;13.632;2023-08-06T06:19:24;99413.13;;;24.45;55.55
31121;BME280;17770;45.966;13.632;2023-08-06T06:21:50;99404.72;;;24.76;54.76
31121;BME280;17770;45.966;13.632;2023-08-06T06:24:16;99409.38;;;24.82;54.55
31121;BME280;17770;45.966;13.632;2023-08-06T06:26:42;99407.41;;;24.84;54.38
31121;BME280;17770;45.966;13.632;2023-08-06T06:29:07;99412.28;;;24.45;55.31
31121;BME280;17770;45.966;13.632;2023-08-06T06:31:33;99415.50;;;24.65;55.00
31121;BME280;17770;45.966;13.632;2023-08-06T06:34:00;99411.16;;;24.81;54.36
31121;BME280;17770;45.966;13.632;2023-08-06T06:36:25;99411.16;;;24.81;53.71
31121;BME280;17770;45.966;13.632;2023-08-06T06:38:51;99411.69;;;24.85;53.48
31121;BME280;17770;45.966;13.632;2023-08-06T06:41:17;99405.25;;;24.54;54.19
31121;BME280;17770;45.966;13.632;2023-08-06T06:43:44;99403.66;;;24.35;54.44
31121;BME280;17770;45.966;13.632;2023-08-06T06:46:10;99401.47;;;24.30;54.58
31121;BME280;17770;45.966;13.632;2023-08-06T06:48:36;99407.19;;;24.69;53.71
31121;BME280;17770;45.966;13.632;2023-08-06T06:51:02;99403.06;;;24.75;53.65
31121;BME280;17770;45.966;13.632;2023-08-06T06:53:28;99409.84;;;24.77;53.68
31121;BME280;17770;45.966;13.632;2023-08-06T06:55:55;99415.94;;;24.78;53.53
31121;BME280;17770;45.966;13.632;2023-08-06T06:58:21;99411.66;;;24.77;53.61
31121;BME280;17770;45.966;13.632;2023-08-06T07:00:47;99405.38;;;24.78;53.24
31121;BME280;17770;45.966;13.632;2023-08-06T07:03:14;99411.50;;;24.78;53.24
31121;BME280;17770;45.966;13.632;2023-08-06T07:05:40;99405.88;;;24.81;53.83
31121;BME280;17770;45.966;13.632;2023-08-06T07:08:06;99413.81;;;24.81;53.82
31121;BME280;17770;45.966;13.632;2023-08-06T07:10:32;99416.59;;;24.80;53.69
31121;BME280;17770;45.966;13.632;2023-08-06T07:12:57;99410.38;;;24.81;53.69
31121;BME280;17770;45.966;13.632;2023-08-06T07:15:23;99406.72;;;24.82;53.44
31121;BME280;17770;45.966;13.632;2023-08-06T07:17:49;99400.78;;;24.80;53.17
31121;BME280;17770;45.966;13.632;2023-08-06T07:20:15;99404.09;;;24.82;54.08
31121;BME280;17770;45.966;13.632;2023-08-06T07:22:41;99408.00;;;24.44;54.78
31121;BME280;17770;45.966;13.632;2023-08-06T07:25:07;99413.66;;;24.31;54.51
31121;BME280;17770;45.966;13.632;2023-08-06T07:27:33;99427.63;;;24.49;54.84
31121;BME280;17770;45.966;13.632;2023-08-06T07:29:59;99431.97;;;24.59;54.09
31121;BME280;17770;45.966;13.632;2023-08-06T07:32:25;99425.31;;;24.72;53.67
31121;BME280;17770;45.966;13.632;2023-08-06T07:34:50;99427.16;;;24.80;53.54
31121;BME280;17770;45.966;13.632;2023-08-06T07:37:22;99430.63;;;24.80;53.17
31121;BME280;17770;45.966;13.632;2023-08-06T07:39:48;99436.41;;;24.84;53.50
31121;BME280;17770;45.966;13.632;2023-08-06T07:42:14;99440.69;;;24.85;53.40
31121;BME280;17770;45.966;13.632;2023-08-06T07:44:39;99443.19;;;24.86;53.11
31121;BME280;17770;45.966;13.632;2023-08-06T07:47:05;99441.38;;;24.87;54.65
31121;BME280;17770;45.966;13.632;2023-08-06T07:49:31;99445.50;;;24.89;54.44
31121;BME280;17770;45.966;13.632;2023-08-06T07:51:57;99451.28;;;24.93;55.31
31121;BME280;17770;45.966;13.632;2023-08-06T07:54:23;99448.66;;;24.93;55.39
31121;BME280;17770;45.966;13.632;2023-08-06T07:56:50;99443.03;;;24.96;54.67
31121;BME280;17770;45.966;13.632;2023-08-06T07:59:16;99444.72;;;24.97;53.63
31121;BME280;17770;45.966;13.632;2023-08-06T08:01:42;99444.88;;;24.95;54.34
31121;BME280;17770;45.966;13.632;2023-08-06T08:04:08;99449.16;;;24.96;54.24
31121;BME280;17770;45.966;13.632;2023-08-06T08:06:33;99440.13;;;24.99;54.68
31121;BME280;17770;45.966;13.632;2023-08-06T08:08:59;99427.72;;;24.99;54.72
31121;BME280;17770;45.966;13.632;2023-08-06T08:11:25;99436.31;;;25.01;54.56
31121;BME280;17770;45.966;13.632;2023-08-06T08:13:51;99432.72;;;25.02;54.31
31121;BME280;17770;45.966;13.632;2023-08-06T08:16:17;99434.50;;;25.02;53.76
31121;BME280;17770;45.966;13.632;2023-08-06T08:18:43;99437.00;;;25.03;53.52
31121;BME280;17770;45.966;13.632;2023-08-06T08:21:09;99434.28;;;24.62;54.33
31121;BME280;17770;45.966;13.632;2023-08-06T08:23:35;99445.44;;;24.48;54.84
31121;BME280;17770;45.966;13.632;2023-08-06T08:26:01;99437.97;;;24.43;54.77
31121;BME280;17770;45.966;13.632;2023-08-06T08:28:27;99430.88;;;24.43;54.91
31121;BME280;17770;45.966;13.632;2023-08-06T08:30:53;99434.22;;;24.45;55.94
31121;BME280;17770;45.966;13.632;2023-08-06T08:33:20;99435.03;;;24.46;56.54
31121;BME280;17770;45.966;13.632;2023-08-06T08:35:46;99436.53;;;24.48;56.04
31121;BME280;17770;45.966;13.632;2023-08-06T08:38:12;99433.88;;;24.48;56.75
31121;BME280;17770;45.966;13.632;2023-08-06T08:40:39;99427.63;;;24.49;57.13
31121;BME280;17770;45.966;13.632;2023-08-06T08:43:08;99437.88;;;24.53;57.35
31121;BME280;17770;45.966;13.632;2023-08-06T08:45:34;99448.78;;;24.58;57.30
31121;BME280;17770;45.966;13.632;2023-08-06T08:48:01;99445.16;;;24.59;57.17
31121;BME280;17770;45.966;13.632;2023-08-06T08:50:27;99444.84;;;24.62;57.13
31121;BME280;17770;45.966;13.632;2023-08-06T08:52:53;99444.69;;;24.63;56.94
31121;BME280;17770;45.966;13.632;2023-08-06T08:55:19;99447.16;;;24.65;56.79
31121;BME280;17770;45.966;13.632;2023-08-06T08:57:46;99446.47;;;24.63;56.66
31121;BME280;17770;45.966;13.632;2023-08-06T09:00:13;99451.91;;;24.61;56.20
31121;BME280;17770;45.966;13.632;2023-08-06T09:02:39;99450.78;;;24.64;55.95
31121;BME280;17770;45.966;13.632;2023-08-06T09:05:07;99456.75;;;24.66;55.91
31121;BME280;17770;45.966;13.632;2023-08-06T09:07:43;99462.00;;;24.66;55.82
31121;BME280;17770;45.966;13.632;2023-08-06T09:10:12;99461.03;;;24.67;55.63
31121;BME280;17770;45.966;13.632;2023-08-06T09:12:39;99460.88;;;24.68;55.65
31121;BME280;17770;45.966;13.632;2023-08-06T09:15:05;99458.09;;;24.70;55.15
31121;BME280;17770;45.966;13.632;2023-08-06T09:17:31;99454.50;;;24.71;55.52
31121;BME280;17770;45.966;13.632;2023-08-06T09:19:57;99455.13;;;24.73;55.40
31121;BME280;17770;45.966;13.632;2023-08-06T09:22:23;99454.19;;;24.74;55.26
31121;BME280;17770;45.966;13.632;2023-08-06T09:24:49;99455.81;;;24.75;54.99
31121;BME280;17770;45.966;13.632;2023-08-06T09:27:15;99452.22;;;24.76;54.97
31121;BME280;17770;45.966;13.632;2023-08-06T09:29:42;99457.31;;;24.77;55.18
31121;BME280;17770;45.966;13.632;2023-08-06T09:32:08;99462.28;;;24.80;54.92
31121;BME280;17770;45.966;13.632;2023-08-06T09:34:34;99456.69;;;24.83;55.01
31121;BME280;17770;45.966;13.632;2023-08-06T09:37:00;99454.88;;;24.84;54.89
31121;BME280;17770;45.966;13.632;2023-08-06T09:39:29;99462.63;;;24.85;55.11
31121;BME280;17770;45.966;13.632;2023-08-06T09:41:56;99463.31;;;24.87;55.07
31121;BME280;17770;45.966;13.632;2023-08-06T09:44:22;99470.06;;;24.90;54.69
31121;BME280;17770;45.966;13.632;2023-08-06T09:46:51;99476.50;;;24.87;54.80
31121;BME280;17770;45.966;13.632;2023-08-06T09:49:18;99471.41;;;24.86;54.88
31121;BME280;17770;45.966;13.632;2023-08-06T09:51:45;99457.22;;;24.87;55.10
31121;BME280;17770;45.966;13.632;2023-08-06T09:54:12;99454.56;;;24.87;54.92
31121;BME280;17770;45.966;13.632;2023-08-06T09:56:41;99454.41;;;24.88;54.67
31121;BME280;17770;45.966;13.632;2023-08-06T09:59:07;99458.03;;;24.87;55.26
31121;BME280;17770;45.966;13.632;2023-08-06T10:01:34;99462.16;;;24.90;54.85
31121;BME280;17770;45.966;13.632;2023-08-06T10:04:00;99461.31;;;24.89;54.81
31121;BME280;17770;45.966;13.632;2023-08-06T10:06:27;99463.00;;;24.90;54.95
31121;BME280;17770;45.966;13.632;2023-08-06T10:08:55;99464.63;;;24.91;54.62
31121;BME280;17770;45.966;13.632;2023-08-06T10:11:21;99461.84;;;24.93;54.50
31121;BME280;17770;45.966;13.632;2023-08-06T10:13:49;99466.78;;;24.96;54.70
31121;BME280;17770;45.966;13.632;2023-08-06T10:16:16;99466.78;;;24.96;54.87
31121;BME280;17770;45.966;13.632;2023-08-06T10:18:42;99457.75;;;24.98;54.55
31121;BME280;17770;45.966;13.632;2023-08-06T10:21:09;99459.56;;;24.98;54.74
31121;BME280;17770;45.966;13.632;2023-08-06T10:23:35;99460.22;;;25.00;54.53
31121;BME280;17770;45.966;13.632;2023-08-06T10:26:03;99468.97;;;25.00;54.53
31121;BME280;17770;45.966;13.632;2023-08-06T10:28:36;99471.47;;;25.02;54.54
31121;BME280;17770;45.966;13.632;2023-08-06T10:31:03;99472.94;;;25.04;54.28
31121;BME280;17770;45.966;13.632;2023-08-06T10:33:40;99472.13;;;25.04;54.35
31121;BME280;17770;45.966;13.632;2023-08-06T10:36:08;99469.34;;;25.05;53.85
31121;BME280;17770;45.966;13.632;2023-08-06T10:38:35;99462.22;;;25.06;53.81
31121;BME280;17770;45.966;13.632;2023-08-06T10:41:03;99461.25;;;25.07;54.32
31121;BME280;17770;45.966;13.632;2023-08-06T10:43:30;99463.72;;;25.08;53.89
31121;BME280;17770;45.966;13.632;2023-08-06T10:45:56;99459.13;;;25.10;53.79
31121;BME280;17770;45.966;13.632;2023-08-06T10:48:33;99459.94;;;25.11;53.77
31121;BME280;17770;45.966;13.632;2023-08-06T10:51:00;99459.94;;;25.11;54.40
31121;BME280;17770;45.966;13.632;2023-08-06T10:53:26;99457.13;;;25.12;53.76
31121;BME280;17770;45.966;13.632;2023-08-06T10:55:52;99462.28;;;25.14;53.64
31121;BME280;17770;45.966;13.632;2023-08-06T10:58:18;99457.47;;;25.17;53.70
31121;BME280;17770;45.966;13.632;2023-08-06T11:00:44;99450.56;;;25.16;53.65
31121;BME280;17770;45.966;13.632;2023-08-06T11:03:10;99449.56;;;25.17;53.97
31121;BME280;17770;45.966;13.632;2023-08-06T11:05:35;99443.31;;;25.18;54.01
31121;BME280;17770;45.966;13.632;2023-08-06T11:08:01;99449.28;;;25.20;53.66
31121;BME280;17770;45.966;13.632;2023-08-06T11:10:28;99441.19;;;25.22;53.76
31121;BME280;17770;45.966;13.632;2023-08-06T11:12:53;99443.50;;;25.25;53.80
31121;BME280;17770;45.966;13.632;2023-08-06T11:15:20;99434.59;;;25.26;53.45
31121;BME280;17770;45.966;13.632;2023-08-06T11:17:46;99447.44;;;25.29;53.87
31121;BME280;17770;45.966;13.632;2023-08-06T11:20:12;99439.53;;;25.29;53.39
31121;BME280;17770;45.966;13.632;2023-08-06T11:22:38;99443.69;;;25.31;53.74
31121;BME280;17770;45.966;13.632;2023-08-06T11:25:05;99452.44;;;25.32;53.06
31121;BME280;17770;45.966;13.632;2023-08-06T11:27:31;99450.75;;;25.31;53.03
31121;BME280;17770;45.966;13.632;2023-08-06T11:29:57;99454.06;;;25.33;53.62
31121;BME280;17770;45.966;13.632;2023-08-06T11:32:23;99458.34;;;25.34;52.86
31121;BME280;17770;45.966;13.632;2023-08-06T11:34:49;99465.47;;;25.33;53.01
31121;BME280;17770;45.966;13.632;2023-08-06T11:37:15;99463.50;;;25.35;52.76
31121;BME280;17770;45.966;13.632;2023-08-06T11:39:45;99462.72;;;25.35;52.89
31121;BME280;17770;45.966;13.632;2023-08-06T11:42:11;99469.47;;;25.37;53.45
31121;BME280;17770;45.966;13.632;2023-08-06T11:44:37;99458.91;;;25.37;53.38
31121;BME280;17770;45.966;13.632;2023-08-06T11:47:04;99457.94;;;25.38;53.44
31121;BME280;17770;45.966;13.632;2023-08-06T11:49:38;99460.41;;;25.40;53.39
31121;BME280;17770;45.966;13.632;2023-08-06T11:52:23;99459.56;;;25.39;53.89
31121;BME280;17770;45.966;13.632;2023-08-06T11:55:02;99459.25;;;25.42;53.66
31121;BME280;17770;45.966;13.632;2023-08-06T11:57:36;99468.50;;;25.46;53.69
31121;BME280;17770;45.966;13.632;2023-08-06T12:00:03;99463.91;;;25.48;54.02
31121;BME280;17770;45.966;13.632;2023-08-06T12:02:38;99457.63;;;25.49;54.22
31121;BME280;17770;45.966;13.632;2023-08-06T12:07:31;99460.75;;;25.53;54.30
31121;BME280;17770;45.966;13.632;2023-08-06T12:09:58;99461.59;;;25.53;54.77
31121;BME280;17770;45.966;13.632;2023-08-06T12:12:24;99458.78;;;25.55;54.44
31121;BME280;17770;45.966;13.632;2023-08-06T12:14:50;99456.97;;;25.55;54.94
31121;BME280;17770;45.966;13.632;2023-08-06T12:17:16;99454.16;;;25.57;55.07
31121;BME280;17770;45.966;13.632;2023-08-06T12:19:44;99452.19;;;25.59;54.72
31121;BME280;17770;45.966;13.632;2023-08-06T12:22:10;99452.00;;;25.60;54.99
31121;BME280;17770;45.966;13.632;2023-08-06T12:24:36;99451.84;;;25.62;55.57
31121;BME280;17770;45.966;13.632;2023-08-06T12:27:01;99448.25;;;25.63;55.71
31121;BME280;17770;45.966;13.632;2023-08-06T12:29:28;99445.44;;;25.64;55.76
31121;BME280;17770;45.966;13.632;2023-08-06T12:31:54;99454.03;;;25.66;55.53
31121;BME280;17770;45.966;13.632;2023-08-06T12:34:20;99448.41;;;25.69;55.70
31121;BME280;17770;45.966;13.632;2023-08-06T12:36:46;99443.63;;;25.73;55.23
31121;BME280;17770;45.966;13.632;2023-08-06T12:39:12;99446.09;;;25.75;55.46
31121;BME280;17770;45.966;13.632;2023-08-06T12:41:38;99442.63;;;25.74;55.21
31121;BME280;17770;45.966;13.632;2023-08-06T12:44:04;99446.78;;;25.77;55.65
31121;BME280;17770;45.966;13.632;2023-08-06T12:46:30;99446.78;;;25.77;55.91
31121;BME280;17770;45.966;13.632;2023-08-06T12:48:56;99441.31;;;26.26;54.69
31121;BME280;17770;45.966;13.632;2023-08-06T12:51:23;99441.00;;;26.05;55.52
31121;BME280;17770;45.966;13.632;2023-08-06T12:53:49;99440.31;;;25.87;55.89
31121;BME280;17770;45.966;13.632;2023-08-06T12:56:15;99443.31;;;25.84;55.94